Avalon, New Jersey
Current Conditions -  °F | °C
As of 1:55 AM on Saturday 25 Oct 2014 (Local Time) from KWWD Reporting Station
Clear Clear  
Wind Chill: 55°   Ceiling: Unl
Heat Index: 55°   Visibility: 10mi
Dew Point: 41°   Wind: 5mph
Humidity: 58%   Direction: 320°NW
Pressure: 29.91"   Gusts: NA
Location:  39.1°N, 74.72°W
Report Text: KWWD 250555Z AUTO 32004KT 10SM CLR 13/05 A2991 RMK AO1 10170 20130 52003
Loading
Personal Weather Stations






























Interactive Weather Map
Tropical Storm Tracking
New forecast layout! Learn more

10-Day Weather Forecast

Advertisements
Track Severe Weather on mobile